Time;durP1;ratioP1;P1;durP2;ratioP2;P2;SDS_P1;SDS_P2;PMS_P1;PMS_P2;Temp;Humidity;BMP_temperature;BMP_pressure;BME280_temperature;BME280_humidity;BME280_pressure;Samples;Min_cycle;Max_cycle;Signal;HPM_P1;HPM_P2
2022/06/28 00:01:00;;;;;;;;;;;;;;;;;;5050675;28;20383;-83
2022/06/28 00:03:25;;;;;;;;;;;;;;;;;;5051297;28;19913;-83
2022/06/28 00:05:50;;;;;;;;;;;;;;;;;;5043414;28;20389;-82
2022/06/28 00:08:16;;;;;;;;;;;;;;;;;;5047707;28;20531;-83
2022/06/28 00:10:41;;;;;;;;;;;;;;;;;;5054368;28;19920;-83
2022/06/28 00:13:06;;;;;;;;;;;;;;;;;;5053158;28;20020;-82
2022/06/28 00:18:15;;;;;;;;;;;;;;;;;;5052149;28;20012;-84
2022/06/28 00:20:40;;;;;;;;;;;;;;;;;;5052685;28;20032;-83
2022/06/28 00:23:05;;;;;;;;;;;;;;;;;;5053953;28;19943;-82
2022/06/28 00:25:30;;;;;;;;;;;;;;;;;;5052910;28;19912;-83
2022/06/28 00:27:55;;;;;;;;;;;;;;;;;;5053840;28;19921;-82
2022/06/28 00:30:21;;;;;;;;;;;;;;;;;;5048435;28;19917;-83
2022/06/28 00:32:46;;;;;;;;;;;;;;;;;;5053074;28;19913;-84
2022/06/28 00:35:11;;;;;;;;;;;;;;;;;;5051087;28;20062;-83
2022/06/28 00:37:36;;;;;;;;;;;;;;;;;;5052014;28;19917;-84
2022/06/28 00:40:01;;;;;;;;;;;;;;;;;;5052301;28;19982;-84
2022/06/28 00:42:26;;;;;;;;;;;;;;;;;;5048640;28;19920;-83
2022/06/28 00:44:52;;;;;;;;;;;;;;;;;;5052148;28;19919;-82
2022/06/28 00:47:17;;;;;;;;;;;;;;;;;;5053502;28;19916;-82
2022/06/28 00:49:42;;;;;;;;;;;;;;;;;;5050440;28;20493;-83
2022/06/28 00:52:07;;;;;;;;;;;;;;;;;;5052030;28;19999;-83
2022/06/28 00:54:32;;;;;;;;;;;;;;;;;;5050296;28;19967;-83
2022/06/28 00:56:57;;;;;;;;;;;;;;;;;;5053163;28;19963;-82
2022/06/28 00:59:23;;;;;;;;;;;;;;;;;;5052697;28;19948;-83
2022/06/28 01:01:48;;;;;;;;;;;;;;;;;;5053001;28;19912;-83
2022/06/28 01:04:13;;;;;;;;;;;;;;;;;;5052255;28;19909;-83
2022/06/28 01:06:38;;;;;;;;;;;;;;;;;;5051239;28;20020;-83
2022/06/28 01:09:03;;;;;;;;;;;;;;;;;;5045207;28;19909;-84
2022/06/28 01:11:28;;;;;;;;;;;;;;;;;;5050556;28;19960;-83
2022/06/28 01:13:54;;;;;;;;;;;;;;;;;;5050835;28;19912;-83
2022/06/28 01:16:19;;;;;;;;;;;;;;;;;;5050076;28;19987;-82
2022/06/28 01:18:44;;;;;;;;;;;;;;;;;;5050795;28;20043;-83
2022/06/28 01:21:09;;;;;;;;;;;;;;;;;;5045437;28;19962;-83
2022/06/28 01:23:34;;;;;;;;;;;;;;;;;;5049570;28;19920;-82
2022/06/28 01:26:00;;;;;;;;;;;;;;;;;;5052704;28;19913;-82
2022/06/28 01:28:25;;;;;;;;;;;;;;;;;;5052693;28;19917;-83
2022/06/28 01:30:50;;;;;;;;;;;;;;;;;;5053876;28;19955;-83
2022/06/28 01:33:15;;;;;;;;;;;;;;;;;;5052046;28;19915;-84
2022/06/28 01:35:40;;;;;;;;;;;;;;;;;;5053011;28;19913;-85
2022/06/28 01:38:06;;;;;;;;;;;;;;;;;;5051389;28;20536;-85
2022/06/28 01:40:32;;;;;;;;;;;;;;;;;;5048132;28;19916;-85
2022/06/28 01:42:57;;;;;;;;;;;;;;;;;;5051991;28;19913;-86
2022/06/28 01:45:22;;;;;;;;;;;;;;;;;;5052507;28;19925;-85
2022/06/28 01:47:47;;;;;;;;;;;;;;;;;;5051690;28;19924;-83
2022/06/28 01:50:12;;;;;;;;;;;;;;;;;;5052587;28;20329;-85
2022/06/28 01:52:38;;;;;;;;;;;;;;;;;;5048275;28;19920;-85
2022/06/28 01:55:03;;;;;;;;;;;;;;;;;;5051161;28;20357;-85
2022/06/28 01:57:28;;;;;;;;;;;;;;;;;;5050594;28;19913;-85
2022/06/28 01:59:53;;;;;;;;;;;;;;;;;;5052083;28;20524;-84
2022/06/28 02:02:18;;;;;;;;;;;;;;;;;;5050884;28;19916;-85
2022/06/28 02:04:43;;;;;;;;;;;;;;;;;;5046961;28;19939;-84
2022/06/28 02:07:09;;;;;;;;;;;;;;;;;;5048931;28;19969;-84
2022/06/28 02:09:34;;;;;;;;;;;;;;;;;;5046691;28;19969;-84
2022/06/28 02:11:59;;;;;;;;;;;;;;;;;;5029674;28;19921;-83
2022/06/28 02:14:24;;;;;;;;;;;;;;;;;;5049515;28;19917;-83
2022/06/28 02:16:50;;;;;;;;;;;;;;;;;;5048410;28;20298;-84
2022/06/28 02:19:15;;;;;;;;;;;;;;;;;;5051308;28;19935;-82
2022/06/28 02:21:40;;;;;;;;;;;;;;;;;;5051862;28;19915;-83
2022/06/28 02:24:05;;;;;;;;;;;;;;;;;;5048856;28;19967;-84
2022/06/28 02:26:32;;;;;;;;;;;;;;;;;;5048468;28;19921;-84
2022/06/28 02:28:57;;;;;;;;;;;;;;;;;;5050245;28;20370;-84
2022/06/28 02:31:22;;;;;;;;;;;;;;;;;;5050285;28;20011;-84
2022/06/28 02:33:47;;;;;;;;;;;;;;;;;;5046834;28;20000;-84
2022/06/28 02:41:40;;;;;;;;;;;;;;;;;;5049530;28;19919;-84
2022/06/28 02:44:05;;;;;;;;;;;;;;;;;;5050859;28;19913;-85
2022/06/28 02:46:30;;;;;;;;;;;;;;;;;;5050927;28;20001;-84
2022/06/28 02:48:56;;;;;;;;;;;;;;;;;;5051924;28;19914;-84
2022/06/28 02:51:21;;;;;;;;;;;;;;;;;;5045449;28;20690;-84
2022/06/28 02:53:46;;;;;;;;;;;;;;;;;;5042446;28;19913;-84
2022/06/28 02:56:11;;;;;;;;;;;;;;;;;;5047879;28;20381;-84
2022/06/28 02:58:36;;;;;;;;;;;;;;;;;;5049798;28;19940;-84
2022/06/28 03:01:01;;;;;;;;;;;;;;;;;;5050292;28;20375;-85
2022/06/28 03:03:27;;;;;;;;;;;;;;;;;;5049845;28;19916;-85
2022/06/28 03:05:52;;;;;;;;;;;;;;;;;;5047544;28;20323;-85
2022/06/28 03:08:17;;;;;;;;;;;;;;;;;;5050140;28;19962;-84
2022/06/28 03:10:42;;;;;;;;;;;;;;;;;;5050250;28;19917;-84
2022/06/28 03:13:07;;;;;;;;;;;;;;;;;;5049788;28;20390;-84
2022/06/28 03:15:33;;;;;;;;;;;;;;;;;;5047262;28;19929;-84
2022/06/28 03:17:58;;;;;;;;;;;;;;;;;;5048842;28;20382;-84
2022/06/28 03:20:23;;;;;;;;;;;;;;;;;;5047296;28;19999;-86
2022/06/28 03:22:48;;;;;;;;;;;;;;;;;;5048069;28;19916;-86
2022/06/28 03:25:13;;;;;;;;;;;;;;;;;;5049210;28;20270;-86
2022/06/28 03:27:38;;;;;;;;;;;;;;;;;;5050198;28;19917;-86
2022/06/28 03:30:04;;;;;;;;;;;;;;;;;;5049419;28;19974;-85
2022/06/28 03:32:29;;;;;;;;;;;;;;;;;;5049495;28;20377;-85
2022/06/28 03:34:54;;;;;;;;;;;;;;;;;;5047535;28;19913;-84
2022/06/28 03:37:19;;;;;;;;;;;;;;;;;;5047353;28;19915;-85
2022/06/28 03:39:44;;;;;;;;;;;;;;;;;;5062922;28;20004;-85
2022/06/28 03:42:10;;;;;;;;;;;;;;;;;;5049949;28;19920;-85
2022/06/28 03:44:35;;;;;;;;;;;;;;;;;;5049647;28;19917;-85
2022/06/28 03:47:00;;;;;;;;;;;;;;;;;;5030958;28;19947;-84
2022/06/28 03:49:25;;;;;;;;;;;;;;;;;;5045288;28;20433;-84
2022/06/28 03:51:50;;;;;;;;;;;;;;;;;;5049849;28;19909;-84
2022/06/28 03:54:16;;;;;;;;;;;;;;;;;;5042732;28;19956;-84
2022/06/28 03:56:41;;;;;;;;;;;;;;;;;;5050243;28;20436;-84
2022/06/28 03:59:06;;;;;;;;;;;;;;;;;;5044260;28;19912;-84
2022/06/28 04:01:31;;;;;;;;;;;;;;;;;;5043903;28;19913;-85
2022/06/28 04:03:56;;;;;;;;;;;;;;;;;;5048984;28;19938;-85
2022/06/28 04:06:21;;;;;;;;;;;;;;;;;;5049518;28;19917;-85
2022/06/28 04:08:47;;;;;;;;;;;;;;;;;;5048779;28;19924;-84
2022/06/28 04:11:15;;;;;;;;;;;;;;;;;;5049608;28;20255;-84
2022/06/28 04:13:40;;;;;;;;;;;;;;;;;;5049401;28;19928;-84
2022/06/28 04:16:05;;;;;;;;;;;;;;;;;;5048278;28;19919;-85
2022/06/28 04:18:30;;;;;;;;;;;;;;;;;;5049515;28;20015;-85
2022/06/28 04:20:56;;;;;;;;;;;;;;;;;;5046533;28;19935;-84
2022/06/28 04:23:21;;;;;;;;;;;;;;;;;;5048431;28;19919;-85
2022/06/28 04:25:46;;;;;;;;;;;;;;;;;;5049010;28;20260;-85
2022/06/28 04:28:11;;;;;;;;;;;;;;;;;;5047774;28;19917;-86
2022/06/28 04:30:36;;;;;;;;;;;;;;;;;;5049232;28;20360;-85
2022/06/28 04:33:02;;;;;;;;;;;;;;;;;;5046026;28;19913;-86
2022/06/28 04:35:27;;;;;;;;;;;;;;;;;;5044885;28;19963;-85
2022/06/28 04:37:52;;;;;;;;;;;;;;;;;;5047603;28;19928;-86
2022/06/28 04:40:17;;;;;;;;;;;;;;;;;;5047639;28;19913;-85
2022/06/28 04:42:42;;;;;;;;;;;;;;;;;;5047286;28;19946;-85
2022/06/28 04:45:07;;;;;;;;;;;;;;;;;;5049706;28;19929;-86
2022/06/28 04:47:33;;;;;;;;;;;;;;;;;;5049760;28;19921;-84
2022/06/28 04:49:58;;;;;;;;;;;;;;;;;;5047127;28;19912;-86
2022/06/28 04:52:23;;;;;;;;;;;;;;;;;;5048342;28;19920;-85
2022/06/28 04:54:48;;;;;;;;;;;;;;;;;;5050263;28;19956;-85
2022/06/28 04:57:13;;;;;;;;;;;;;;;;;;5053055;28;19913;-85
2022/06/28 04:59:38;;;;;;;;;;;;;;;;;;5050155;28;19919;-84
2022/06/28 05:02:04;;;;;;;;;;;;;;;;;;5051973;28;19928;-86
2022/06/28 05:04:29;;;;;;;;;;;;;;;;;;5049028;28;20600;-86
2022/06/28 05:06:54;;;;;;;;;;;;;;;;;;5049805;28;19923;-85
2022/06/28 05:09:19;;;;;;;;;;;;;;;;;;5050693;28;20476;-86
2022/06/28 05:11:44;;;;;;;;;;;;;;;;;;5051404;28;19948;-84
2022/06/28 05:14:09;;;;;;;;;;;;;;;;;;5049599;28;19916;-86
2022/06/28 05:16:35;;;;;;;;;;;;;;;;;;5046606;28;19916;-85
2022/06/28 05:19:00;;;;;;;;;;;;;;;;;;5050945;28;19913;-84
2022/06/28 05:21:25;;;;;;;;;;;;;;;;;;5050694;28;19935;-85
2022/06/28 05:23:51;;;;;;;;;;;;;;;;;;5050683;28;19912;-85
2022/06/28 05:26:16;;;;;;;;;;;;;;;;;;5048284;28;19945;-84
2022/06/28 05:28:41;;;;;;;;;;;;;;;;;;5051461;28;20562;-85
2022/06/28 05:31:06;;;;;;;;;;;;;;;;;;5050141;28;19913;-85
2022/06/28 05:33:32;;;;;;;;;;;;;;;;;;5050767;28;19913;-84
2022/06/28 05:35:57;;;;;;;;;;;;;;;;;;5053515;28;19961;-85
2022/06/28 05:38:22;;;;;;;;;;;;;;;;;;5050546;28;20532;-85
2022/06/28 05:40:47;;;;;;;;;;;;;;;;;;5046756;28;19913;-85
2022/06/28 05:43:12;;;;;;;;;;;;;;;;;;5052265;28;19924;-85
2022/06/28 05:45:37;;;;;;;;;;;;;;;;;;5052686;28;20001;-85
2022/06/28 05:48:03;;;;;;;;;;;;;;;;;;5033338;28;19920;-85
2022/06/28 05:50:28;;;;;;;;;;;;;;;;;;5042657;28;20318;-85
2022/06/28 05:52:53;;;;;;;;;;;;;;;;;;5052874;28;19920;-85
2022/06/28 05:55:18;;;;;;;;;;;;;;;;;;5052045;28;19917;-85
2022/06/28 05:57:43;;;;;;;;;;;;;;;;;;5049283;28;19967;-85
2022/06/28 06:00:09;;;;;;;;;;;;;;;;;;5052358;28;19915;-87
2022/06/28 06:02:34;;;;;;;;;;;;;;;;;;5052483;28;20786;-86
2022/06/28 06:05:02;;;;;;;;;;;;;;;;;;5050805;28;19987;-85
2022/06/28 06:07:27;;;;;;;;;;;;;;;;;;5049486;28;19916;-85
2022/06/28 06:09:52;;;;;;;;;;;;;;;;;;5046619;28;19913;-85
2022/06/28 06:12:20;;;;;;;;;;;;;;;;;;5049639;28;20379;-85
2022/06/28 06:14:46;;;;;;;;;;;;;;;;;;5051565;28;19916;-84
2022/06/28 06:17:11;;;;;;;;;;;;;;;;;;5051704;28;19932;-84
2022/06/28 06:19:36;;;;;;;;;;;;;;;;;;5051250;28;19913;-86
2022/06/28 06:22:01;;;;;;;;;;;;;;;;;;5050864;28;19927;-85
2022/06/28 06:24:26;;;;;;;;;;;;;;;;;;5053169;28;19940;-85
2022/06/28 06:26:52;;;;;;;;;;;;;;;;;;5045794;28;20382;-86
2022/06/28 06:29:17;;;;;;;;;;;;;;;;;;5045965;28;20264;-86
2022/06/28 06:31:42;;;;;;;;;;;;;;;;;;5047959;28;19912;-85
2022/06/28 06:34:07;;;;;;;;;;;;;;;;;;5051315;28;19915;-85
2022/06/28 06:36:32;;;;;;;;;;;;;;;;;;5051680;28;19935;-84
2022/06/28 06:38:58;;;;;;;;;;;;;;;;;;5052911;28;19920;-83
2022/06/28 06:41:23;;;;;;;;;;;;;;;;;;5051681;28;19920;-85
2022/06/28 06:43:48;;;;;;;;;;;;;;;;;;5049131;28;20267;-84
2022/06/28 06:46:13;;;;;;;;;;;;;;;;;;5051445;28;19952;-85
2022/06/28 06:48:38;;;;;;;;;;;;;;;;;;5057113;23;20019;-86
2022/06/28 06:51:04;;;;;;;;;;;;;;;;;;5033559;28;19925;-85
2022/06/28 06:53:29;;;;;;;;;;;;;;;;;;5032906;28;20008;-85
2022/06/28 06:55:54;;;;;;;;;;;;;;;;;;5030017;28;19952;-86
2022/06/28 06:58:19;;;;;;;;;;;;;;;;;;5028460;28;19914;-85
2022/06/28 07:00:44;;;;;;;;;;;;;;;;;;5025365;28;19980;-85
2022/06/28 07:03:09;;;;;;;;;;;;;;;;;;5022980;28;19914;-85
2022/06/28 07:05:35;;;;;;;;;;;;;;;;;;5020717;28;20108;-85
2022/06/28 07:08:00;;;;;;;;;;;;;;;;;;5021626;28;20896;-84
2022/06/28 07:10:25;;;;;;;;;;;;;;;;;;5024818;28;19917;-85
2022/06/28 07:12:50;;;;;;;;;;;;;;;;;;5029522;28;19913;-85
2022/06/28 07:15:15;;;;;;;;;;;;;;;;;;5025962;28;19940;-84
2022/06/28 07:17:40;;;;;;;;;;;;;;;;;;5032111;28;19920;-84
2022/06/28 07:20:06;;;;;;;;;;;;;;;;;;5023579;28;19918;-85
2022/06/28 07:22:31;;;;;;;;;;;;;;;;;;5041328;28;20294;-85
2022/06/28 07:24:56;;;;;;;;;;;;;;;;;;5030891;28;20054;-84
2022/06/28 07:27:21;;;;;;;;;;;;;;;;;;5028055;28;19963;-85
2022/06/28 07:29:47;;;;;;;;;;;;;;;;;;5026235;28;19920;-85
2022/06/28 07:32:12;;;;;;;;;;;;;;;;;;5034662;28;19917;-85
2022/06/28 07:34:40;;;;;;;;;;;;;;;;;;5032565;28;19913;-85
2022/06/28 07:37:05;;;;;;;;;;;;;;;;;;5035319;28;19935;-84
2022/06/28 07:39:40;;;;;;;;;;;;;;;;;;5033561;28;19912;-84
2022/06/28 07:42:05;;;;;;;;;;;;;;;;;;5029451;28;19961;-84
2022/06/28 07:44:30;;;;;;;;;;;;;;;;;;5029610;28;20342;-85
2022/06/28 07:46:58;;;;;;;;;;;;;;;;;;5045313;28;19921;-84
2022/06/28 07:52:33;;;;;;;;;;;;;;;;;;5034160;28;20001;-86
2022/06/28 07:54:55;;;;;;;;;;;;;;;;;;5022491;28;20123;-84
2022/06/28 07:57:23;;;;;;;;;;;;;;;;;;5028559;28;19959;-84
2022/06/28 08:05:23;;;;;;;;;;;;;;;;;;5028026;28;19924;-85
2022/06/28 08:10:50;;;;;;;;;;;;;;;;;;5030171;28;20278;-83
2022/06/28 08:13:28;;;;;;;;;;;;;;;;;;5034136;28;20143;-84
2022/06/28 08:21:28;;;;;;;;;;;;;;;;;;4991077;28;19959;-83
2022/06/28 08:23:53;;;;;;;;;;;;;;;;;;5017994;28;20326;-84
2022/06/28 08:26:18;;;;;;;;;;;;;;;;;;5031591;28;19928;-84
2022/06/28 08:28:44;;;;;;;;;;;;;;;;;;5034999;28;19940;-83
2022/06/28 08:31:09;;;;;;;;;;;;;;;;;;5030693;28;19917;-83
2022/06/28 08:36:40;;;;;;;;;;;;;;;;;;4972292;28;19918;-83
2022/06/28 08:39:05;;;;;;;;;;;;;;;;;;5031917;28;20608;-84
2022/06/28 08:41:31;;;;;;;;;;;;;;;;;;5043156;28;19913;-84
2022/06/28 08:43:56;;;;;;;;;;;;;;;;;;5032819;28;19921;-84
2022/06/28 08:46:21;;;;;;;;;;;;;;;;;;5034624;28;19997;-83
2022/06/28 08:48:46;;;;;;;;;;;;;;;;;;5037644;28;19917;-84
2022/06/28 08:51:11;;;;;;;;;;;;;;;;;;5032585;28;19913;-84
2022/06/28 08:53:36;;;;;;;;;;;;;;;;;;5040572;28;20896;-83
2022/06/28 08:56:02;;;;;;;;;;;;;;;;;;5041175;28;20251;-83
2022/06/28 08:58:27;;;;;;;;;;;;;;;;;;5034937;28;19952;-83
2022/06/28 09:00:52;;;;;;;;;;;;;;;;;;5030540;28;19984;-83
2022/06/28 09:03:19;;;;;;;;;;;;;;;;;;5035883;28;19914;-83
2022/06/28 09:05:44;;;;;;;;;;;;;;;;;;5039300;28;19920;-83
2022/06/28 09:08:09;;;;;;;;;;;;;;;;;;5029249;28;19918;-83
2022/06/28 09:10:34;;;;;;;;;;;;;;;;;;5048623;28;20482;-83
2022/06/28 09:12:59;;;;;;;;;;;;;;;;;;5038523;28;19920;-83
2022/06/28 09:15:24;;;;;;;;;;;;;;;;;;5046884;28;19913;-83
2022/06/28 09:17:49;;;;;;;;;;;;;;;;;;5037107;28;19915;-83
2022/06/28 09:20:15;;;;;;;;;;;;;;;;;;5037616;28;19917;-83
2022/06/28 09:22:40;;;;;;;;;;;;;;;;;;5041413;28;19953;-83
2022/06/28 09:25:05;;;;;;;;;;;;;;;;;;5026048;28;19916;-83
2022/06/28 09:27:30;;;;;;;;;;;;;;;;;;5040918;28;20302;-84
2022/06/28 09:29:55;;;;;;;;;;;;;;;;;;5041809;28;19956;-84
2022/06/28 09:32:20;;;;;;;;;;;;;;;;;;5038127;28;19917;-83
2022/06/28 09:34:46;;;;;;;;;;;;;;;;;;5027234;28;20457;-83
2022/06/28 09:37:11;;;;;;;;;;;;;;;;;;5039791;28;19920;-83
2022/06/28 09:39:36;;;;;;;;;;;;;;;;;;5040313;28;19913;-83
2022/06/28 09:42:01;;;;;;;;;;;;;;;;;;5037322;28;19945;-85
2022/06/28 09:44:26;;;;;;;;;;;;;;;;;;5037711;28;19973;-83
2022/06/28 09:46:52;;;;;;;;;;;;;;;;;;5048591;28;20290;-83
2022/06/28 09:49:17;;;;;;;;;;;;;;;;;;5032445;28;19920;-84
2022/06/28 09:51:42;;;;;;;;;;;;;;;;;;5049067;28;19935;-83
2022/06/28 09:54:08;;;;;;;;;;;;;;;;;;5039723;28;19920;-84
2022/06/28 09:56:33;;;;;;;;;;;;;;;;;;5035004;28;19917;-84
2022/06/28 09:58:58;;;;;;;;;;;;;;;;;;5036166;28;19913;-83
2022/06/28 10:01:23;;;;;;;;;;;;;;;;;;5047866;28;19924;-83
2022/06/28 10:03:51;;;;;;;;;;;;;;;;;;5043592;28;19928;-84
2022/06/28 10:06:17;;;;;;;;;;;;;;;;;;5040944;28;19913;-83
2022/06/28 10:08:42;;;;;;;;;;;;;;;;;;5045118;28;20218;-84
2022/06/28 10:11:08;;;;;;;;;;;;;;;;;;5037654;28;19971;-84
2022/06/28 10:16:16;;;;;;;;;;;;;;;;;;5036918;28;19996;-83
2022/06/28 10:18:42;;;;;;;;;;;;;;;;;;5037553;28;19941;-84
2022/06/28 10:21:07;;;;;;;;;;;;;;;;;;5039569;28;19921;-84
2022/06/28 10:23:33;;;;;;;;;;;;;;;;;;5038491;28;19913;-83
2022/06/28 10:25:58;;;;;;;;;;;;;;;;;;5033084;28;19913;-84
2022/06/28 10:28:23;;;;;;;;;;;;;;;;;;5040375;28;19940;-83
2022/06/28 10:30:48;;;;;;;;;;;;;;;;;;5035860;28;19948;-84
2022/06/28 10:33:14;;;;;;;;;;;;;;;;;;5033981;28;19917;-83
2022/06/28 10:35:39;;;;;;;;;;;;;;;;;;5031215;28;19913;-83
2022/06/28 10:38:04;;;;;;;;;;;;;;;;;;5042448;28;19913;-84
2022/06/28 10:40:29;;;;;;;;;;;;;;;;;;5031657;28;20388;-84
2022/06/28 10:42:54;;;;;;;;;;;;;;;;;;5030810;28;19913;-83
2022/06/28 10:45:20;;;;;;;;;;;;;;;;;;5030003;28;19917;-83
2022/06/28 10:47:45;;;;;;;;;;;;;;;;;;5035876;28;19913;-83
2022/06/28 10:50:10;;;;;;;;;;;;;;;;;;5031479;28;19921;-83
2022/06/28 10:52:35;;;;;;;;;;;;;;;;;;5030200;28;19924;-84
2022/06/28 10:55:03;;;;;;;;;;;;;;;;;;5031214;28;19921;-83
2022/06/28 10:57:28;;;;;;;;;;;;;;;;;;5032506;28;19921;-83
2022/06/28 10:59:54;;;;;;;;;;;;;;;;;;5035632;28;21488;-84
2022/06/28 11:02:19;;;;;;;;;;;;;;;;;;5039845;28;20405;-83
2022/06/28 11:04:44;;;;;;;;;;;;;;;;;;5035392;28;19914;-83
2022/06/28 11:07:09;;;;;;;;;;;;;;;;;;5033508;28;20387;-84
2022/06/28 11:09:35;;;;;;;;;;;;;;;;;;5032814;28;19935;-83
2022/06/28 11:12:00;;;;;;;;;;;;;;;;;;5033407;28;19913;-83
2022/06/28 11:14:25;;;;;;;;;;;;;;;;;;5027582;28;19917;-83
2022/06/28 11:16:50;;;;;;;;;;;;;;;;;;5035415;28;19936;-84
2022/06/28 11:19:15;;;;;;;;;;;;;;;;;;5029729;28;19917;-83
2022/06/28 11:21:41;;;;;;;;;;;;;;;;;;5032013;28;19913;-83
2022/06/28 11:24:06;;;;;;;;;;;;;;;;;;5036583;28;21607;-84
2022/06/28 11:29:15;;;;;;;;;;;;;;;;;;5042947;28;19924;-84
2022/06/28 11:31:40;;;;;;;;;;;;;;;;;;5030575;28;19917;-83
2022/06/28 11:34:05;;;;;;;;;;;;;;;;;;5039196;28;20445;-83
2022/06/28 11:36:30;;;;;;;;;;;;;;;;;;5034737;28;19913;-83
2022/06/28 11:38:56;;;;;;;;;;;;;;;;;;5035271;28;19917;-83
2022/06/28 11:41:21;;;;;;;;;;;;;;;;;;5034406;28;19913;-84
2022/06/28 11:43:46;;;;;;;;;;;;;;;;;;5033282;28;19918;-83
2022/06/28 11:46:11;;;;;;;;;;;;;;;;;;5036489;28;19917;-84
2022/06/28 11:48:36;;;;;;;;;;;;;;;;;;5027830;28;19924;-83
2022/06/28 11:51:01;;;;;;;;;;;;;;;;;;5027377;28;19970;-83
2022/06/28 11:53:27;;;;;;;;;;;;;;;;;;5039286;28;19948;-83
2022/06/28 11:55:52;;;;;;;;;;;;;;;;;;5031998;28;19917;-83
2022/06/28 11:58:17;;;;;;;;;;;;;;;;;;5034954;28;19925;-83
2022/06/28 12:00:42;;;;;;;;;;;;;;;;;;5030747;28;19999;-83
2022/06/28 12:03:08;;;;;;;;;;;;;;;;;;5038152;28;21855;-83
2022/06/28 12:05:33;;;;;;;;;;;;;;;;;;5036405;28;19912;-84
2022/06/28 12:07:58;;;;;;;;;;;;;;;;;;5045206;28;19916;-84
2022/06/28 12:10:24;;;;;;;;;;;;;;;;;;5045569;28;19913;-85
2022/06/28 12:12:49;;;;;;;;;;;;;;;;;;5035041;28;19921;-85
2022/06/28 12:15:14;;;;;;;;;;;;;;;;;;5034245;28;20082;-84
2022/06/28 12:17:39;;;;;;;;;;;;;;;;;;5046898;28;20366;-83
2022/06/28 12:20:04;;;;;;;;;;;;;;;;;;5040105;28;20291;-84
2022/06/28 12:22:29;;;;;;;;;;;;;;;;;;5038364;28;19909;-85
2022/06/28 12:24:55;;;;;;;;;;;;;;;;;;5043143;28;19913;-84
2022/06/28 12:27:21;;;;;;;;;;;;;;;;;;5032499;28;19917;-83
2022/06/28 12:29:46;;;;;;;;;;;;;;;;;;5039994;28;19967;-84
2022/06/28 12:32:11;;;;;;;;;;;;;;;;;;5036118;28;19913;-85
2022/06/28 12:34:37;;;;;;;;;;;;;;;;;;5033551;28;20271;-83
2022/06/28 12:37:02;;;;;;;;;;;;;;;;;;5035258;28;20363;-84
2022/06/28 12:39:27;;;;;;;;;;;;;;;;;;5032479;28;19921;-83
2022/06/28 12:41:53;;;;;;;;;;;;;;;;;;5037500;28;20002;-84
2022/06/28 12:44:18;;;;;;;;;;;;;;;;;;5032234;28;19924;-84
2022/06/28 12:46:43;;;;;;;;;;;;;;;;;;5029533;28;19913;-83
2022/06/28 12:49:08;;;;;;;;;;;;;;;;;;5046254;23;19960;-84
2022/06/28 12:51:33;;;;;;;;;;;;;;;;;;5048110;28;19916;-84
2022/06/28 12:53:58;;;;;;;;;;;;;;;;;;5043626;28;19955;-84
2022/06/28 12:56:24;;;;;;;;;;;;;;;;;;5048113;28;19917;-85
2022/06/28 12:58:49;;;;;;;;;;;;;;;;;;5050077;28;19920;-84
2022/06/28 13:01:14;;;;;;;;;;;;;;;;;;5056550;28;20540;-84
2022/06/28 13:03:39;;;;;;;;;;;;;;;;;;5051765;28;19917;-84
2022/06/28 13:06:04;;;;;;;;;;;;;;;;;;5068057;28;19955;-85
2022/06/28 13:08:30;;;;;;;;;;;;;;;;;;5051064;28;20405;-84
2022/06/28 13:10:55;;;;;;;;;;;;;;;;;;5053718;28;19999;-84
2022/06/28 13:13:22;;;;;;;;;;;;;;;;;;5050886;28;20271;-84
2022/06/28 13:15:47;;;;;;;;;;;;;;;;;;5044421;28;19920;-84
2022/06/28 13:18:12;;;;;;;;;;;;;;;;;;5052654;28;19913;-84
2022/06/28 13:20:38;;;;;;;;;;;;;;;;;;5056218;28;19966;-84
2022/06/28 13:23:03;;;;;;;;;;;;;;;;;;5051174;28;19924;-84
2022/06/28 13:25:28;;;;;;;;;;;;;;;;;;5049015;28;20468;-85
2022/06/28 13:27:53;;;;;;;;;;;;;;;;;;5046645;28;19917;-84
2022/06/28 13:30:18;;;;;;;;;;;;;;;;;;5050583;28;20430;-84
2022/06/28 13:32:44;;;;;;;;;;;;;;;;;;5053071;28;20003;-84
2022/06/28 13:35:09;;;;;;;;;;;;;;;;;;5052981;28;20436;-84
2022/06/28 13:37:34;;;;;;;;;;;;;;;;;;5050378;28;19917;-85
2022/06/28 13:40:00;;;;;;;;;;;;;;;;;;5053285;28;20007;-84
2022/06/28 13:42:25;;;;;;;;;;;;;;;;;;5049388;28;20404;-85
2022/06/28 13:44:50;;;;;;;;;;;;;;;;;;5050969;28;19917;-84
2022/06/28 13:47:15;;;;;;;;;;;;;;;;;;5053532;28;20057;-84
2022/06/28 13:49:41;;;;;;;;;;;;;;;;;;5049957;28;20111;-84
2022/06/28 13:52:06;;;;;;;;;;;;;;;;;;5053419;28;20340;-84
2022/06/28 13:54:31;;;;;;;;;;;;;;;;;;5051830;28;20094;-84
2022/06/28 13:56:56;;;;;;;;;;;;;;;;;;5047914;28;19913;-84
2022/06/28 13:59:22;;;;;;;;;;;;;;;;;;5050363;28;20004;-83
2022/06/28 14:01:49;;;;;;;;;;;;;;;;;;5063943;28;19913;-83
2022/06/28 14:04:14;;;;;;;;;;;;;;;;;;5056904;28;19930;-84
2022/06/28 14:06:39;;;;;;;;;;;;;;;;;;5048398;28;20783;-84
2022/06/28 14:09:04;;;;;;;;;;;;;;;;;;5053453;28;20170;-84
2022/06/28 14:11:29;;;;;;;;;;;;;;;;;;5049628;28;20279;-85
2022/06/28 14:13:54;;;;;;;;;;;;;;;;;;5047415;28;19916;-83
2022/06/28 14:16:20;;;;;;;;;;;;;;;;;;5058137;28;20011;-84
2022/06/28 14:18:45;;;;;;;;;;;;;;;;;;5047674;28;19913;-84
2022/06/28 14:21:10;;;;;;;;;;;;;;;;;;5046539;28;19941;-84
2022/06/28 14:23:35;;;;;;;;;;;;;;;;;;5048204;28;19916;-85
2022/06/28 14:26:00;;;;;;;;;;;;;;;;;;5049535;28;19967;-84
2022/06/28 14:28:25;;;;;;;;;;;;;;;;;;5058091;28;20405;-85
2022/06/28 14:30:51;;;;;;;;;;;;;;;;;;5052260;28;19909;-85
2022/06/28 14:33:16;;;;;;;;;;;;;;;;;;5049628;28;20010;-84
2022/06/28 14:35:41;;;;;;;;;;;;;;;;;;5051137;28;19996;-84
2022/06/28 14:38:06;;;;;;;;;;;;;;;;;;5059846;28;19931;-84
2022/06/28 14:40:32;;;;;;;;;;;;;;;;;;5051265;28;20032;-83
2022/06/28 14:42:57;;;;;;;;;;;;;;;;;;5052126;28;19913;-85
2022/06/28 14:45:22;;;;;;;;;;;;;;;;;;5049436;28;20535;-84
2022/06/28 14:47:49;;;;;;;;;;;;;;;;;;5050351;28;19921;-85
2022/06/28 14:50:14;;;;;;;;;;;;;;;;;;5047249;28;19924;-84
2022/06/28 14:52:39;;;;;;;;;;;;;;;;;;5049178;28;20366;-84
2022/06/28 14:55:05;;;;;;;;;;;;;;;;;;5048230;28;19916;-84
2022/06/28 14:57:30;;;;;;;;;;;;;;;;;;5051259;28;20297;-84
2022/06/28 14:59:55;;;;;;;;;;;;;;;;;;5052068;28;19909;-84
2022/06/28 15:02:21;;;;;;;;;;;;;;;;;;5059139;28;19920;-84
2022/06/28 15:04:46;;;;;;;;;;;;;;;;;;5048719;28;19966;-83
2022/06/28 15:07:11;;;;;;;;;;;;;;;;;;5052338;28;20399;-84
2022/06/28 15:09:37;;;;;;;;;;;;;;;;;;5050389;28;19944;-84
2022/06/28 15:12:02;;;;;;;;;;;;;;;;;;5047892;28;19920;-83
2022/06/28 15:14:28;;;;;;;;;;;;;;;;;;5052417;28;20419;-84
2022/06/28 15:16:53;;;;;;;;;;;;;;;;;;5050332;28;19916;-84
2022/06/28 15:19:19;;;;;;;;;;;;;;;;;;5051478;28;19931;-84
2022/06/28 15:32:40;;;;;;;;;;;;;;;;;;5051954;28;19968;-84
2022/06/28 15:35:05;;;;;;;;;;;;;;;;;;5054635;28;20389;-85
2022/06/28 15:37:31;;;;;;;;;;;;;;;;;;5044284;28;19966;-84
2022/06/28 15:39:56;;;;;;;;;;;;;;;;;;5046012;28;20422;-84
2022/06/28 15:42:21;;;;;;;;;;;;;;;;;;5051918;28;19923;-84
2022/06/28 15:44:46;;;;;;;;;;;;;;;;;;5049754;28;20270;-84
2022/06/28 15:47:11;;;;;;;;;;;;;;;;;;5048503;28;19923;-84
2022/06/28 15:49:38;;;;;;;;;;;;;;;;;;5043374;28;20210;-84
2022/06/28 15:52:04;;;;;;;;;;;;;;;;;;5045455;28;20437;-84
2022/06/28 15:54:29;;;;;;;;;;;;;;;;;;5044014;28;19974;-84
2022/06/28 15:56:54;;;;;;;;;;;;;;;;;;5049566;28;19920;-85
2022/06/28 15:59:19;;;;;;;;;;;;;;;;;;5046945;28;20020;-85
2022/06/28 16:01:44;;;;;;;;;;;;;;;;;;5045109;28;19912;-84
2022/06/28 16:04:09;;;;;;;;;;;;;;;;;;5048289;28;19959;-85
2022/06/28 16:06:35;;;;;;;;;;;;;;;;;;5045060;28;19913;-85
2022/06/28 16:09:00;;;;;;;;;;;;;;;;;;5047041;28;19920;-85
2022/06/28 16:11:25;;;;;;;;;;;;;;;;;;5045995;28;19913;-84
2022/06/28 16:13:50;;;;;;;;;;;;;;;;;;5042545;28;19935;-84
2022/06/28 16:16:15;;;;;;;;;;;;;;;;;;5048331;28;19917;-85
2022/06/28 16:18:41;;;;;;;;;;;;;;;;;;5053931;28;19916;-85
2022/06/28 16:21:06;;;;;;;;;;;;;;;;;;5050032;28;20394;-84
2022/06/28 16:23:32;;;;;;;;;;;;;;;;;;5045224;28;20000;-84
2022/06/28 16:25:57;;;;;;;;;;;;;;;;;;5045014;28;19919;-85
2022/06/28 16:28:22;;;;;;;;;;;;;;;;;;5049351;28;19921;-85
2022/06/28 16:30:47;;;;;;;;;;;;;;;;;;5046415;28;20000;-85
2022/06/28 16:33:12;;;;;;;;;;;;;;;;;;5048046;28;19974;-84
2022/06/28 16:35:38;;;;;;;;;;;;;;;;;;5050506;28;19916;-85
2022/06/28 16:38:03;;;;;;;;;;;;;;;;;;5048232;28;19967;-85
2022/06/28 16:40:28;;;;;;;;;;;;;;;;;;5048560;28;20003;-84
2022/06/28 16:42:53;;;;;;;;;;;;;;;;;;5048404;28;19920;-83
2022/06/28 16:45:18;;;;;;;;;;;;;;;;;;5042535;28;20436;-84
2022/06/28 16:47:44;;;;;;;;;;;;;;;;;;5053581;28;19917;-84
2022/06/28 16:50:09;;;;;;;;;;;;;;;;;;5047312;28;19916;-84
2022/06/28 16:52:34;;;;;;;;;;;;;;;;;;5054168;28;19921;-83
2022/06/28 16:55:00;;;;;;;;;;;;;;;;;;5052210;28;19913;-83
2022/06/28 16:57:25;;;;;;;;;;;;;;;;;;5042170;28;19982;-84
2022/06/28 16:59:50;;;;;;;;;;;;;;;;;;5057160;28;19913;-84
2022/06/28 17:02:15;;;;;;;;;;;;;;;;;;5053973;28;19917;-84
2022/06/28 17:04:40;;;;;;;;;;;;;;;;;;5056464;28;19921;-83
2022/06/28 17:07:21;;;;;;;;;;;;;;;;;;5058326;28;19924;-84
2022/06/28 17:09:46;;;;;;;;;;;;;;;;;;5054395;28;19916;-83
2022/06/28 17:12:11;;;;;;;;;;;;;;;;;;5051791;28;19913;-84
2022/06/28 17:14:36;;;;;;;;;;;;;;;;;;5053677;28;19923;-83
2022/06/28 17:17:02;;;;;;;;;;;;;;;;;;5058520;28;19917;-83